createdAt,value
2022-11-16T00:03:13.679Z,98614.88
2022-11-16T00:08:17.029Z,98603.50
2022-11-16T00:13:20.933Z,98613.84
2022-11-16T00:18:25.844Z,98611.13
2022-11-16T00:23:29.262Z,98596.47
2022-11-16T00:28:33.031Z,98592.03
2022-11-16T00:33:38.453Z,98589.47
2022-11-16T00:38:42.662Z,98590.31
2022-11-16T00:43:48.360Z,98581.81
2022-11-16T00:48:53.144Z,98588.72
2022-11-16T00:53:56.533Z,98572.72
2022-11-16T00:58:59.936Z,98573.72
2022-11-16T01:04:04.967Z,98567.78
2022-11-16T01:09:08.441Z,98558.31
2022-11-16T01:14:12.553Z,98553.03
2022-11-16T01:19:17.357Z,98545.25
2022-11-16T01:24:21.022Z,98533.03
2022-11-16T01:29:25.204Z,98527.94
2022-11-16T01:34:34.634Z,98519.38
2022-11-16T01:39:44.915Z,98526.00
2022-11-16T01:45:04.332Z,98526.03
2022-11-16T01:50:13.903Z,98516.63
2022-11-16T01:55:19.908Z,98512.34
2022-11-16T02:00:43.599Z,98510.63
2022-11-16T02:06:29.982Z,98497.69
2022-11-16T02:12:09.777Z,98489.75
2022-11-16T02:17:21.332Z,98488.84
2022-11-16T02:22:40.808Z,98483.25
2022-11-16T02:28:12.572Z,98478.09
2022-11-16T02:33:22.168Z,98470.09
2022-11-16T02:38:29.188Z,98473.59
2022-11-16T02:43:37.431Z,98462.09
2022-11-16T02:48:48.252Z,98456.81
2022-11-16T02:54:03.223Z,98456.31
2022-11-16T02:59:14.141Z,98443.47
2022-11-16T03:04:28.906Z,98439.13
2022-11-16T03:09:35.891Z,98451.34
2022-11-16T03:14:44.260Z,98434.69
2022-11-16T03:19:59.073Z,98437.41
2022-11-16T03:25:02.827Z,98419.28
2022-11-16T03:30:09.760Z,98413.44
2022-11-16T03:35:25.230Z,98400.66
2022-11-16T03:40:32.017Z,98386.13
2022-11-16T03:45:37.389Z,98376.75
2022-11-16T03:50:44.843Z,98377.69
2022-11-16T03:55:50.201Z,98374.13
2022-11-16T04:00:54.617Z,98369.84
2022-11-16T04:06:16.959Z,98377.50
2022-11-16T04:11:40.312Z,98383.47
2022-11-16T04:17:02.623Z,98392.19
2022-11-16T04:22:37.788Z,98387.56
2022-11-16T04:27:58.857Z,98382.19
2022-11-16T04:33:19.997Z,98379.66
2022-11-16T04:38:25.139Z,98367.88
2022-11-16T04:43:29.573Z,98366.91
2022-11-16T04:48:33.695Z,98366.22
2022-11-16T04:53:41.613Z,98365.09
2022-11-16T04:58:53.225Z,98360.66
2022-11-16T05:03:56.773Z,98353.97
2022-11-16T05:09:01.660Z,98344.63
2022-11-16T05:14:06.635Z,98327.44
2022-11-16T05:19:27.484Z,98335.38
2022-11-16T05:24:35.732Z,98336.25
2022-11-16T05:29:40.937Z,98323.28
2022-11-16T05:34:45.235Z,98325.28
2022-11-16T05:39:50.270Z,98328.88
2022-11-16T05:44:55.774Z,98319.50
2022-11-16T05:49:59.971Z,98316.03
2022-11-16T05:55:10.754Z,98319.38
2022-11-16T06:00:20.788Z,98311.13
2022-11-16T06:05:27.754Z,98306.78
2022-11-16T06:10:33.981Z,98307.03
2022-11-16T06:15:38.716Z,98299.50
2022-11-16T06:20:44.265Z,98302.22
2022-11-16T06:25:53.641Z,98298.00
2022-11-16T06:30:57.639Z,98293.69
2022-11-16T06:36:02.973Z,98279.94
2022-11-16T06:41:09.085Z,98268.84
2022-11-16T06:46:18.061Z,98267.19
2022-11-16T06:51:21.611Z,98259.50
2022-11-16T06:56:26.661Z,98279.38
2022-11-16T07:01:32.989Z,98257.84
2022-11-16T07:06:42.180Z,98263.31
2022-11-16T07:11:47.719Z,98266.88
2022-11-16T07:16:59.040Z,98264.34
2022-11-16T07:22:03.615Z,98261.75
2022-11-16T07:27:10.026Z,98247.97
2022-11-16T07:32:17.503Z,98245.34
2022-11-16T07:37:39.286Z,98241.06
2022-11-16T07:42:45.933Z,98234.16
2022-11-16T07:47:52.453Z,98229.84
2022-11-16T07:53:18.654Z,98210.88
2022-11-16T07:58:23.525Z,98214.22
2022-11-16T08:03:27.563Z,98200.38
2022-11-16T08:08:31.870Z,98187.34
2022-11-16T08:13:38.411Z,98175.94
2022-11-16T08:18:43.161Z,98177.63
2022-11-16T08:23:47.345Z,98173.16
2022-11-16T08:28:54.034Z,98180.88
2022-11-16T08:34:01.987Z,98197.53
2022-11-16T08:39:07.522Z,98200.50
2022-11-16T08:44:12.891Z,98202.44
2022-11-16T08:49:20.490Z,98204.00
2022-11-16T08:54:24.454Z,98194.53
2022-11-16T08:59:29.569Z,98191.72
2022-11-16T09:04:38.222Z,98191.56
2022-11-16T09:09:41.591Z,98172.28
2022-11-16T09:14:46.337Z,98162.34
2022-11-16T09:19:49.665Z,98146.81
2022-11-16T09:24:53.005Z,98129.22
2022-11-16T09:29:57.702Z,98129.47
2022-11-16T09:35:01.049Z,98127.94
2022-11-16T09:45:36.535Z,98129.97
2022-11-16T09:56:21.681Z,98122.72
2022-11-16T10:01:30.403Z,98111.97
2022-11-16T10:06:48.743Z,98097.53
2022-11-16T10:12:08.268Z,98070.44
2022-11-16T10:17:22.510Z,98068.25
2022-11-16T10:22:40.959Z,98069.72
2022-11-16T10:28:11.835Z,98053.69
2022-11-16T10:33:20.579Z,98038.75
2022-11-16T10:38:28.386Z,98037.72
2022-11-16T10:43:34.092Z,98039.16
2022-11-16T10:48:44.335Z,98029.47
2022-11-16T10:53:48.115Z,98016.94
2022-11-16T10:58:54.251Z,98020.34
2022-11-16T11:04:01.256Z,98007.19
2022-11-16T11:09:16.307Z,97997.97
2022-11-16T11:14:19.657Z,97996.38
2022-11-16T11:19:28.610Z,97995.09
2022-11-16T11:24:47.491Z,97985.09
2022-11-16T11:29:55.263Z,97974.66
2022-11-16T11:35:01.725Z,97972.94
2022-11-16T11:40:21.621Z,97971.47
2022-11-16T11:45:31.775Z,97966.19
2022-11-16T11:50:45.789Z,97963.41
2022-11-16T11:55:50.838Z,97956.81
2022-11-16T12:01:07.696Z,97957.97
2022-11-16T12:06:20.639Z,97949.53
2022-11-16T12:11:34.274Z,97958.97
2022-11-16T12:16:46.239Z,97954.66
2022-11-16T12:22:04.328Z,97946.94
2022-11-16T12:27:17.581Z,97939.63
2022-11-16T12:32:53.106Z,97936.78
2022-11-16T12:38:05.166Z,97939.13
2022-11-16T12:43:17.706Z,97941.78
2022-11-16T12:48:56.319Z,97941.06
2022-11-16T12:54:25.842Z,97933.78
2022-11-16T12:59:49.253Z,97931.47
2022-11-16T13:04:58.593Z,97927.91
2022-11-16T13:10:09.047Z,97920.53
2022-11-16T13:15:19.459Z,97915.88
2022-11-16T13:20:33.174Z,97917.34
2022-11-16T13:25:47.265Z,97918.56
2022-11-16T13:31:01.996Z,97921.88
2022-11-16T13:36:40.578Z,97924.81
2022-11-16T13:41:46.825Z,97923.72
2022-11-16T13:46:56.319Z,97917.22
2022-11-16T13:52:22.050Z,97921.28
2022-11-16T13:57:32.572Z,97911.28
2022-11-16T14:02:37.345Z,97921.19
2022-11-16T14:07:42.879Z,97914.00
2022-11-16T14:12:57.346Z,97921.38
2022-11-16T14:18:37.358Z,97910.75
2022-11-16T14:24:11.895Z,97908.88
2022-11-16T14:29:39.759Z,97913.09
2022-11-16T14:34:48.208Z,97914.50
2022-11-16T14:39:53.281Z,97916.41
2022-11-16T14:45:02.934Z,97916.28
2022-11-16T14:50:19.961Z,97918.78
2022-11-16T14:55:25.692Z,97931.44
2022-11-16T15:00:30.634Z,97935.31
2022-11-16T15:05:36.974Z,97933.13
2022-11-16T15:10:51.022Z,97929.88
2022-11-16T15:16:16.857Z,97926.84
2022-11-16T15:21:23.692Z,97922.09
2022-11-16T15:26:27.103Z,97929.69
2022-11-16T15:31:31.946Z,97927.75
2022-11-16T15:36:40.730Z,97928.25
2022-11-16T15:41:44.386Z,97939.94
2022-11-16T15:46:52.094Z,97941.78
2022-11-16T15:51:55.562Z,97932.28
2022-11-16T15:57:08.094Z,97940.63
2022-11-16T16:02:19.632Z,97949.56
2022-11-16T16:07:39.249Z,97954.91
2022-11-16T16:12:50.467Z,97942.47
2022-11-16T16:17:55.750Z,97943.59
2022-11-16T16:23:09.962Z,97934.34
2022-11-16T16:28:15.017Z,97938.03
2022-11-16T16:33:22.098Z,97928.34
2022-11-16T16:38:25.499Z,97926.50
2022-11-16T16:43:29.000Z,97926.63
2022-11-16T16:48:33.798Z,97926.41
2022-11-16T16:53:37.402Z,97926.19
2022-11-16T16:58:40.855Z,97920.31
2022-11-16T17:03:45.758Z,97917.81
2022-11-16T17:08:49.102Z,97913.47
2022-11-16T17:13:52.490Z,97912.25
2022-11-16T17:18:57.526Z,97910.75
2022-11-16T17:24:00.966Z,97904.75
2022-11-16T17:29:04.775Z,97903.50
2022-11-16T17:34:13.877Z,97898.34
2022-11-16T17:39:18.293Z,97895.38
2022-11-16T17:44:22.346Z,97894.63
2022-11-16T17:49:27.389Z,97896.19
2022-11-16T17:54:30.763Z,97896.56
2022-11-16T17:59:34.405Z,97898.47
2022-11-16T18:04:39.199Z,97893.56
2022-11-16T18:09:42.614Z,97896.44
2022-11-16T18:15:06.251Z,97892.19
2022-11-16T18:20:12.410Z,97889.03
2022-11-16T18:25:17.611Z,97889.13
2022-11-16T18:30:21.713Z,97888.47
2022-11-16T18:35:26.467Z,97881.72
2022-11-16T18:40:30.374Z,97885.06
2022-11-16T18:45:33.806Z,97878.47
2022-11-16T18:50:38.623Z,97890.44
2022-11-16T18:55:44.806Z,97885.22
2022-11-16T19:00:48.769Z,97883.81
2022-11-16T19:05:59.146Z,97881.41
2022-11-16T19:11:05.911Z,97884.09
2022-11-16T19:16:10.004Z,97880.59
2022-11-16T19:21:18.412Z,97882.19
2022-11-16T19:26:24.819Z,97883.16
2022-11-16T19:31:29.932Z,97879.81
2022-11-16T19:36:36.934Z,97874.56
2022-11-16T19:41:40.304Z,97872.72
2022-11-16T19:46:43.702Z,97868.41
2022-11-16T19:51:49.387Z,97865.00
2022-11-16T19:56:55.178Z,97867.72
2022-11-16T20:01:58.835Z,97870.78
2022-11-16T20:07:03.710Z,97866.94
2022-11-16T20:12:07.468Z,97864.50
2022-11-16T20:17:11.676Z,97867.16
2022-11-16T20:22:16.889Z,97857.72
2022-11-16T20:27:20.235Z,97856.78
2022-11-16T20:32:25.118Z,97855.88
2022-11-16T20:37:29.887Z,97858.50
2022-11-16T20:42:33.304Z,97864.56
2022-11-16T20:47:36.722Z,97851.56
2022-11-16T20:52:44.286Z,97853.28
2022-11-16T20:57:49.566Z,97848.97
2022-11-16T21:02:52.956Z,97851.44
2022-11-16T21:07:57.716Z,97845.38
2022-11-16T21:13:18.212Z,97843.22
2022-11-16T21:18:24.243Z,97850.38
2022-11-16T21:23:33.548Z,97839.03
2022-11-16T21:28:37.113Z,97841.63
2022-11-16T21:33:40.953Z,97841.97
2022-11-16T21:38:46.088Z,97837.75
2022-11-16T21:43:50.164Z,97834.44
2022-11-16T21:48:55.491Z,97836.34
2022-11-16T21:54:00.260Z,97827.66
2022-11-16T21:59:03.645Z,97826.78
2022-11-16T22:04:39.220Z,97821.63
2022-11-16T22:09:44.080Z,97815.56
2022-11-16T22:14:47.479Z,97814.84
2022-11-16T22:19:50.901Z,97813.97
2022-11-16T22:24:55.675Z,97805.59
2022-11-16T22:29:59.226Z,97802.31
2022-11-16T22:35:02.622Z,97803.22
2022-11-16T22:40:12.479Z,97790.63
2022-11-16T22:45:18.531Z,97782.03
2022-11-16T22:50:23.521Z,97786.34
2022-11-16T22:55:28.325Z,97778.56
2022-11-16T23:00:33.349Z,97767.97
2022-11-16T23:05:38.558Z,97766.13
2022-11-16T23:10:57.144Z,97758.28
2022-11-16T23:16:05.065Z,97754.03
2022-11-16T23:21:25.428Z,97748.72
2022-11-16T23:26:47.827Z,97753.03
2022-11-16T23:31:51.250Z,97737.34
2022-11-16T23:36:54.618Z,97738.16
2022-11-16T23:42:17.322Z,97738.00
2022-11-16T23:47:20.686Z,97733.53
2022-11-16T23:52:24.010Z,97730.75
2022-11-16T23:57:28.787Z,97718.69
